Terminal Aerodrome Forecast
Issued by NWS Dodge City, KS

Home | Current Version | Previous Version | Graphics & Text | Print | Product List | Glossary Off
Versions: 1 2 3 4 5 6 7 8 9 10 11 12 13 14 15 16 17 18 19 20 21 22

000
FTUS43 KDDC 211121
TAFDDC
TAF
KDDC 211121Z 2112/2212 19012KT P6SM SCT250
     FM211700 19017G25KT P6SM FEW250
     FM220000 17016G24KT P6SM VCTS SCT050CB
     FM220400 18013KT P6SM BKN250
     FM220900 19009KT P6SM FEW250=

USA.gov is the U.S. government's official web portal to all federal, state and local government web resources and services.